This is the latest recevied weather packets stored in our database for station/object DM0MR. If no packets are shown the sender has not sent any weather packets the latest 10 day(s).
| Time | Temp. | Humidity | Pressure | Rain* | Wind** | Luminosity | Snow |
|---|---|---|---|---|---|---|---|
| 1787419381 | 17.78° C | 65% | 1015.8 hPa | 0 mm | - | - | - |
| 1787418483 | 17.78° C | 62% | 1015.5 hPa | 0 mm | - | - | - |
| 1787407680 | 18.33° C | 72% | 1015 hPa | 0 mm | - | - | - |
| 1787406781 | 19.44° C | 71% | 1014.8 hPa | 0 mm | - | - | - |
| 1787405880 | 16.67° C | 79% | 1014.9 hPa | 0 mm | - | - | - |
| 1787404982 | 16.67° C | 78% | 1014.8 hPa | 0 mm | - | - | - |
| 1787404080 | 17.78° C | 80% | 1014.8 hPa | 0 mm | - | - | - |
| 1787402281 | 17.78° C | 79% | 1014.6 hPa | 0 mm | - | - | - |
| 1787401381 | 19.44° C | 76% | 1014.5 hPa | 0.25 mm | - | - | - |
| 1787396882 | 20.56° C | 66% | 1013.8 hPa | 0 mm | - | - | - |
| 1787395080 | 17.78° C | 75% | 1013.6 hPa | 0 mm | - | - | - |
| 1787394181 | 21.11° C | 71% | 1013.6 hPa | 0 mm | - | - | - |
| 1787393280 | 20.56° C | 76% | 1013.6 hPa | 0 mm | - | - | - |
| 1787391480 | 16.67° C | 86% | 1013.4 hPa | 0 mm | - | - | - |
| 1787390579 | 18.89° C | 83% | 1013.3 hPa | 0 mm | - | - | - |
| 1787389680 | 17.22° C | 91% | 1013.3 hPa | 0 mm | - | - | - |
| 1787388780 | 16.11° C | 98% | 1013.2 hPa | 0 mm | - | - | - |
| 1787386080 | 14.44° C | 99% | 1012.8 hPa | 0.25 mm | - | - | - |
| 1787385180 | 13.89° C | 99% | 1012.6 hPa | 0.25 mm | - | - | - |
| 1787384280 | 13.33° C | 99% | 1012.4 hPa | 1.02 mm | - | - | - |
| 1787383382 | 13.33° C | 99% | 1012.2 hPa | 2.79 mm | - | - | - |
| 1787382481 | 13.33° C | 99% | 1012 hPa | 4.32 mm | - | - | - |
| 1787380682 | 13.33° C | 99% | 1011.4 hPa | 4.06 mm | - | - | - |
| 1787379781 | 13.33° C | 99% | 1011.5 hPa | 2.29 mm | - | - | - |
| 1787378880 | 13.33° C | 98% | 1011.3 hPa | 0.76 mm | - | - | - |
* Rain latest hour (hover to see other rain measurements)
** Current wind speed in m/s (hover to see current wind gust speed)